Time;durP1;ratioP1;P1;durP2;ratioP2;P2;SDS_P1;SDS_P2;PMS_P1;PMS_P2;Temp;Humidity;BMP_temperature;BMP_pressure;BME280_temperature;BME280_humidity;BME280_pressure;Samples;Min_cycle;Max_cycle;Signal;HPM_P1;HPM_P2
2023/04/27 00:00:31;;;;;;;7.17;6.47;;;;;;;7.70;96.40;98249.41;4968913;28;20257;-78
2023/04/27 00:02:59;;;;;;;9.03;6.60;;;;;;;7.70;97.61;98249.41;4969861;28;20221;-78
2023/04/27 00:05:25;;;;;;;7.70;6.40;;;;;;;7.67;97.46;98257.50;4969806;28;20575;-78
2023/04/27 00:07:51;;;;;;;9.80;6.10;;;;;;;7.62;99.14;98246.38;4969474;28;20229;-78
2023/04/27 00:10:18;;;;;;;8.57;6.10;;;;;;;7.60;99.76;98245.63;4968961;28;20237;-78
2023/04/27 00:12:45;;;;;;;6.77;5.40;;;;;;;7.59;100.00;98243.94;4969661;28;20214;-78
2023/04/27 00:15:11;;;;;;;6.03;5.43;;;;;;;7.62;99.41;98243.75;4969505;28;20222;-77
2023/04/27 00:17:38;;;;;;;6.40;4.80;;;;;;;7.66;98.76;98245.28;4969604;28;20217;-77
2023/04/27 00:20:11;;;;;;;5.63;4.57;;;;;;;7.68;98.39;98233.75;4968687;28;20228;-79
2023/04/27 00:22:38;;;;;;;6.60;4.80;;;;;;;7.70;97.91;98238.91;4969596;28;20257;-79
2023/04/27 00:25:05;;;;;;;4.77;4.03;;;;;;;7.69;97.35;98234.56;4969679;28;20218;-78
2023/04/27 00:27:32;;;;;;;6.77;5.00;;;;;;;7.69;97.33;98224.06;4969335;28;20225;-78
2023/04/27 00:29:58;;;;;;;6.53;4.77;;;;;;;7.68;97.06;98222.38;4968533;28;20234;-78
2023/04/27 00:32:25;;;;;;;6.10;4.60;;;;;;;7.68;96.51;98222.38;4969738;28;20237;-78
2023/04/27 00:34:51;;;;;;;7.13;4.93;;;;;;;7.67;96.58;98218.03;4969860;28;20217;-78
2023/04/27 00:37:19;;;;;;;6.03;5.07;;;;;;;7.66;96.94;98219.81;4969408;28;20586;-78
2023/04/27 00:39:46;;;;;;;6.27;5.40;;;;;;;7.66;98.09;98234.75;4968216;28;20243;-78
2023/04/27 00:42:18;;;;;;;6.30;5.17;;;;;;;7.63;98.63;98227.03;4969214;28;20221;-78
2023/04/27 00:44:44;;;;;;;5.43;4.87;;;;;;;7.59;100.00;98231.63;4969150;28;20208;-78
2023/04/27 00:47:11;;;;;;;5.37;4.87;;;;;;;7.57;100.00;98230.84;4969255;28;20225;-79
2023/04/27 00:49:38;;;;;;;5.70;5.20;;;;;;;7.57;100.00;98222.09;4968189;28;20291;-78
2023/04/27 00:52:06;;;;;;;7.30;5.47;;;;;;;7.54;100.00;98227.56;4970607;28;20216;-77
2023/04/27 00:54:34;;;;;;;5.83;5.23;;;;;;;7.51;100.00;98218.06;4972398;28;20214;-78
2023/04/27 00:57:01;;;;;;;5.53;4.97;;;;;;;7.48;100.00;98225.25;4972392;28;20678;-78
2023/04/27 00:59:28;;;;;;;5.67;4.97;;;;;;;7.44;100.00;98219.34;4971137;28;20214;-78
2023/04/27 01:01:56;;;;;;;8.53;5.50;;;;;;;7.38;100.00;98224.94;4972187;28;20217;-78
2023/04/27 01:04:22;;;;;;;7.23;4.77;;;;;;;7.38;100.00;98227.56;4972680;28;20217;-78
2023/04/27 01:06:49;;;;;;;8.00;4.97;;;;;;;7.36;100.00;98228.56;4972334;28;20209;-78
2023/04/27 01:09:18;;;;;;;7.47;5.17;;;;;;;7.34;100.00;98233.06;4971434;28;20351;-78
2023/04/27 01:11:46;;;;;;;7.30;5.10;;;;;;;7.30;100.00;98221.84;4972202;28;20229;-78
2023/04/27 01:14:13;;;;;;;7.77;5.23;;;;;;;7.27;100.00;98221.16;4972059;28;20208;-78
2023/04/27 01:16:39;;;;;;;7.57;5.53;;;;;;;7.25;100.00;98228.31;4971988;28;20214;-78
2023/04/27 01:19:07;;;;;;;5.30;4.80;;;;;;;7.22;100.00;98228.47;4971969;28;20218;-78
2023/04/27 01:21:33;;;;;;;6.63;4.80;;;;;;;7.19;100.00;98228.63;4971827;28;20238;-78
2023/04/27 01:24:03;;;;;;;6.83;4.83;;;;;;;7.18;100.00;98227.78;4971940;28;20218;-78
2023/04/27 01:26:30;;;;;;;4.83;4.03;;;;;;;7.18;100.00;98226.06;4971896;28;20563;-77
2023/04/27 01:28:56;;;;;;;5.47;4.67;;;;;;;7.14;100.00;98220.16;4975444;28;20238;-78
2023/04/27 01:31:23;;;;;;;7.07;4.60;;;;;;;7.14;100.00;98225.41;4978219;28;20323;-79
2023/04/27 01:33:49;;;;;;;5.43;4.37;;;;;;;7.09;100.00;98222.16;4972892;28;20211;-78
2023/04/27 01:36:16;;;;;;;7.20;4.93;;;;;;;7.03;100.00;98222.50;4972658;28;20399;-78
2023/04/27 01:38:43;;;;;;;6.60;5.03;;;;;;;7.03;100.00;98222.50;4971760;28;20204;-78
2023/04/27 01:41:10;;;;;;;5.17;4.40;;;;;;;7.02;100.00;98220.81;4971077;28;20731;-78
2023/04/27 01:43:37;;;;;;;7.07;4.97;;;;;;;7.05;100.00;98220.66;4971574;28;20211;-78
2023/04/27 01:46:08;;;;;;;5.80;4.60;;;;;;;7.01;100.00;98223.53;4971970;28;20217;-78
2023/04/27 01:48:34;;;;;;;6.80;4.67;;;;;;;6.97;100.00;98227.25;4971686;28;20242;-78
2023/04/27 01:51:02;;;;;;;7.07;5.00;;;;;;;6.96;100.00;98230.81;4971107;28;20239;-78
2023/04/27 01:53:29;;;;;;;6.77;5.00;;;;;;;6.93;100.00;98233.59;4971628;28;20318;-78
2023/04/27 01:55:55;;;;;;;8.03;5.20;;;;;;;6.92;100.00;98238.00;4971421;28;20694;-78
2023/04/27 01:58:26;;;;;;;6.83;5.23;;;;;;;6.90;100.00;98229.34;4971655;28;20219;-76
2023/04/27 02:00:53;;;;;;;6.20;5.20;;;;;;;6.89;100.00;98240.78;4970649;28;20333;-77
2023/04/27 02:03:19;;;;;;;5.90;5.30;;;;;;;6.88;100.00;98239.09;4971014;28;20246;-77
2023/04/27 02:05:46;;;;;;;7.67;5.33;;;;;;;6.85;100.00;98239.22;4971416;28;20224;-77
2023/04/27 02:08:13;;;;;;;7.23;4.90;;;;;;;6.86;100.00;98246.22;4971506;28;20708;-76
2023/04/27 02:10:40;;;;;;;5.87;5.17;;;;;;;6.83;100.00;98246.34;4970355;28;20242;-78
2023/04/27 02:13:06;;;;;;;8.40;5.53;;;;;;;6.82;100.00;98244.66;4971417;28;20600;-76
2023/04/27 02:15:34;;;;;;;9.63;6.50;;;;;;;6.82;100.00;98244.66;4971419;28;20214;-77
2023/04/27 02:18:02;;;;;;;6.63;5.73;;;;;;;6.85;100.00;98239.22;4971410;28;20234;-79
2023/04/27 02:20:29;;;;;;;7.10;5.70;;;;;;;6.85;100.00;98241.88;4970463;28;20234;-78
2023/04/27 02:22:56;;;;;;;7.60;6.00;;;;;;;6.83;100.00;98242.91;4971014;28;20217;-78
2023/04/27 02:25:22;;;;;;;7.43;6.33;;;;;;;6.84;100.00;98250.69;4971013;28;20214;-78
2023/04/27 02:27:49;;;;;;;10.60;7.27;;;;;;;6.84;100.00;98255.09;4971183;28;20222;-78
2023/04/27 02:30:15;;;;;;;8.30;6.90;;;;;;;6.86;100.00;98256.72;4970308;28;20354;-79
2023/04/27 02:32:43;;;;;;;8.53;6.60;;;;;;;6.89;100.00;98253.91;4970768;28;20590;-79
2023/04/27 02:35:10;;;;;;;7.80;6.73;;;;;;;6.91;100.00;98254.69;4970793;28;20226;-79
2023/04/27 02:37:37;;;;;;;8.23;6.27;;;;;;;6.88;100.00;98252.22;4970711;28;20299;-79
2023/04/27 02:40:05;;;;;;;7.20;6.40;;;;;;;6.90;100.00;98247.72;4980556;22;23083;-83
2023/04/27 02:42:32;;;;;;;8.93;6.70;;;;;;;6.94;100.00;98251.03;4951796;29;20219;-83
2023/04/27 02:44:58;;;;;;;7.73;6.10;;;;;;;6.94;100.00;98248.41;4951770;29;20238;-83
2023/04/27 02:47:25;;;;;;;7.57;5.87;;;;;;;6.95;100.00;98258.84;4951742;29;20438;-84
2023/04/27 02:49:53;;;;;;;7.50;6.27;;;;;;;6.94;100.00;98259.78;4950911;29;20236;-83
2023/04/27 02:52:19;;;;;;;8.97;7.07;;;;;;;6.99;100.00;98254.28;4951312;29;20571;-83
2023/04/27 02:54:46;;;;;;;7.77;6.20;;;;;;;6.99;100.00;98257.75;4951457;29;20222;-83
2023/04/27 02:57:12;;;;;;;7.13;6.03;;;;;;;6.99;100.00;98262.16;4951330;29;20222;-83
2023/04/27 02:59:39;;;;;;;6.43;5.77;;;;;;;6.99;100.00;98265.66;4950606;29;20210;-83
2023/04/27 03:02:06;;;;;;;7.13;5.97;;;;;;;7.02;100.00;98262.00;4951350;29;20216;-83
2023/04/27 03:04:33;;;;;;;6.90;6.00;;;;;;;7.02;100.00;98257.59;4951174;28;20215;-84
2023/04/27 03:07:00;;;;;;;8.07;6.20;;;;;;;7.01;100.00;98266.41;4951336;29;20224;-83
2023/04/27 03:09:27;;;;;;;7.70;6.60;;;;;;;7.02;100.00;98259.38;4950398;29;20238;-83
2023/04/27 03:11:53;;;;;;;7.30;6.60;;;;;;;7.01;100.00;98261.16;4951037;29;20233;-84
2023/04/27 03:14:20;;;;;;;10.03;6.33;;;;;;;7.00;100.00;98269.97;4951032;29;20568;-83
2023/04/27 03:16:46;;;;;;;9.53;6.43;;;;;;;6.99;100.00;98264.78;4950027;29;20211;-84
2023/04/27 03:19:13;;;;;;;9.00;6.80;;;;;;;6.98;100.00;98261.34;4950221;29;20277;-83
2023/04/27 03:21:39;;;;;;;9.83;7.07;;;;;;;6.96;100.00;98267.59;4951099;29;20240;-83
2023/04/27 03:24:07;;;;;;;9.13;6.97;;;;;;;6.99;100.00;98267.41;4950921;29;20218;-83
2023/04/27 03:26:34;;;;;;;9.53;6.80;;;;;;;6.99;100.00;98268.28;4950992;28;20216;-83
2023/04/27 03:29:00;;;;;;;7.07;5.83;;;;;;;6.98;100.00;98269.22;4950634;29;20212;-83
2023/04/27 03:31:27;;;;;;;7.77;5.87;;;;;;;6.96;100.00;98268.41;4950534;29;20491;-83
2023/04/27 03:33:53;;;;;;;6.73;6.03;;;;;;;6.96;100.00;98257.09;4950710;29;20216;-83
2023/04/27 03:36:20;;;;;;;7.67;6.47;;;;;;;6.94;100.00;98259.78;4950899;29;20221;-83
2023/04/27 03:38:46;;;;;;;8.20;6.53;;;;;;;6.95;100.00;98264.09;4950920;29;20218;-83
2023/04/27 03:41:14;;;;;;;7.53;5.93;;;;;;;6.95;100.00;98265.91;4950039;29;20249;-83
2023/04/27 03:43:41;;;;;;;7.47;5.90;;;;;;;6.92;100.00;98268.66;4950847;29;20215;-83
2023/04/27 03:46:08;;;;;;;10.13;6.40;;;;;;;6.91;100.00;98259.09;4950698;29;20217;-83
2023/04/27 03:48:35;;;;;;;10.30;6.67;;;;;;;6.89;100.00;98261.81;4950671;29;20212;-83
2023/04/27 03:51:02;;;;;;;8.30;7.00;;;;;;;6.88;100.00;98268.00;4949923;29;20249;-83
2023/04/27 03:53:28;;;;;;;8.47;6.33;;;;;;;6.87;100.00;98268.91;4951033;29;20209;-83
2023/04/27 03:55:55;;;;;;;8.87;6.53;;;;;;;6.87;100.00;98274.19;4950616;29;20350;-83
2023/04/27 03:58:23;;;;;;;9.17;6.63;;;;;;;6.89;100.00;98276.72;4950575;29;20211;-84
2023/04/27 04:00:49;;;;;;;8.67;6.13;;;;;;;6.86;100.00;98261.97;4954180;28;20231;-84
2023/04/27 04:03:16;;;;;;;7.67;6.33;;;;;;;6.84;100.00;98269.06;4971590;28;20209;-82
2023/04/27 04:05:42;;;;;;;8.63;6.27;;;;;;;6.88;100.00;98264.50;4969280;29;20210;-83
2023/04/27 04:08:08;;;;;;;7.63;6.50;;;;;;;6.91;100.00;98265.19;4967833;29;20195;-83
2023/04/27 04:10:35;;;;;;;7.43;6.50;;;;;;;6.91;100.00;98269.59;4953339;29;20265;-83
2023/04/27 04:13:02;;;;;;;7.03;6.20;;;;;;;6.89;100.00;98272.31;4951083;29;20284;-83
2023/04/27 04:15:30;;;;;;;8.10;6.13;;;;;;;6.91;100.00;98273.06;4950650;29;20639;-83
2023/04/27 04:17:56;;;;;;;7.33;6.43;;;;;;;6.88;100.00;98272.38;4951126;29;20217;-83
2023/04/27 04:20:23;;;;;;;7.50;6.00;;;;;;;6.90;100.00;98273.16;4950018;29;20229;-83
2023/04/27 04:22:49;;;;;;;9.20;6.13;;;;;;;6.88;100.00;98270.63;4950732;28;20213;-83
2023/04/27 04:25:16;;;;;;;6.47;5.57;;;;;;;6.89;100.00;98276.72;4950471;29;20238;-83
2023/04/27 04:27:43;;;;;;;6.73;5.90;;;;;;;6.90;100.00;98284.50;4952755;28;20591;-83
2023/04/27 04:30:10;;;;;;;6.77;5.40;;;;;;;6.90;100.00;98274.00;4953127;29;20240;-83
2023/04/27 04:32:39;;;;;;;6.07;5.47;;;;;;;6.88;100.00;98275.88;4954004;29;20210;-83
2023/04/27 04:35:05;;;;;;;6.23;5.17;;;;;;;6.92;100.00;98282.69;4953637;29;20230;-83
2023/04/27 04:37:34;;;;;;;6.07;5.40;;;;;;;6.93;100.00;98279.09;4953644;29;20595;-83
2023/04/27 04:40:00;;;;;;;8.43;5.70;;;;;;;6.91;100.00;98280.94;4952884;29;20231;-82
2023/04/27 04:42:27;;;;;;;7.33;5.93;;;;;;;6.93;100.00;98281.75;4953718;29;20224;-83
2023/04/27 04:44:54;;;;;;;7.00;5.77;;;;;;;6.97;100.00;98279.78;4953984;28;20218;-84
2023/04/27 04:47:20;;;;;;;6.60;5.90;;;;;;;7.00;100.00;98291.00;4953706;29;20299;-83
2023/04/27 04:49:48;;;;;;;6.57;5.50;;;;;;;7.06;100.00;98277.53;4952776;29;20235;-83
2023/04/27 04:52:14;;;;;;;6.80;5.47;;;;;;;7.08;100.00;98272.19;4953795;29;20213;-83
2023/04/27 04:54:41;;;;;;;5.60;5.00;;;;;;;7.11;100.00;98282.53;4953841;29;20212;-83
2023/04/27 04:57:07;;;;;;;10.93;6.30;;;;;;;7.16;100.00;98285.78;4953318;29;20316;-83
2023/04/27 04:59:34;;;;;;;8.27;6.30;;;;;;;7.17;100.00;98285.69;4952178;29;20218;-83
2023/04/27 05:02:01;;;;;;;6.43;5.80;;;;;;;7.17;100.00;98288.34;4953165;29;20651;-83
2023/04/27 05:04:27;;;;;;;7.37;6.00;;;;;;;7.20;100.00;98287.31;4952931;29;20236;-83
2023/04/27 05:06:55;;;;;;;8.87;6.20;;;;;;;7.22;100.00;98290.72;4953109;29;20228;-83
2023/04/27 05:09:22;;;;;;;9.37;5.77;;;;;;;7.23;100.00;98285.38;4952121;29;20217;-83
2023/04/27 05:11:48;;;;;;;8.70;6.03;;;;;;;7.28;100.00;98297.31;4952471;29;20711;-83
2023/04/27 05:14:15;;;;;;;6.40;5.57;;;;;;;7.32;100.00;98298.00;4952790;29;20216;-84
2023/04/27 05:16:41;;;;;;;5.90;5.30;;;;;;;7.35;100.00;98293.44;4952765;29;20215;-84
2023/04/27 05:19:08;;;;;;;6.57;5.87;;;;;;;7.43;100.00;98286.00;4952084;29;20223;-82
2023/04/27 05:21:35;;;;;;;6.57;5.27;;;;;;;7.44;100.00;98281.56;4952549;29;20234;-82
2023/04/27 05:24:02;;;;;;;6.80;5.80;;;;;;;7.48;100.00;98283.94;4952559;29;20211;-82
2023/04/27 05:26:29;;;;;;;9.50;5.80;;;;;;;7.56;100.00;98288.78;4952530;29;20215;-83
2023/04/27 05:28:55;;;;;;;7.70;5.93;;;;;;;7.58;100.00;98284.28;4952461;29;20719;-84
2023/04/27 05:31:22;;;;;;;7.73;5.20;;;;;;;7.59;100.00;98280.75;4951900;29;20340;-82
2023/04/27 05:33:48;;;;;;;6.63;5.30;;;;;;;7.66;100.00;98288.19;4952545;29;20214;-84
2023/04/27 05:36:15;;;;;;;5.97;5.37;;;;;;;7.76;100.00;98299.06;4952292;29;20212;-83
2023/04/27 05:38:42;;;;;;;9.03;6.23;;;;;;;7.78;100.00;98298.06;4951465;29;20215;-83
2023/04/27 05:41:10;;;;;;;7.93;5.87;;;;;;;7.83;100.00;98290.75;4951832;29;20307;-85
2023/04/27 05:43:37;;;;;;;8.03;5.23;;;;;;;7.87;100.00;98296.69;4952638;29;20225;-84
2023/04/27 05:46:04;;;;;;;6.90;5.77;;;;;;;7.92;100.00;98297.28;4952612;29;20208;-83
2023/04/27 05:48:31;;;;;;;6.83;5.40;;;;;;;8.03;100.00;98297.53;4952217;29;20699;-83
2023/04/27 05:51:01;;;;;;;7.30;6.00;;;;;;;8.10;100.00;98304.16;4951611;29;20238;-85
2023/04/27 05:53:28;;;;;;;6.83;5.57;;;;;;;8.15;100.00;98304.75;4952172;29;20229;-83
2023/04/27 05:55:55;;;;;;;6.63;5.37;;;;;;;8.21;100.00;98310.53;4952137;29;20212;-85
2023/04/27 05:58:23;;;;;;;6.70;5.10;;;;;;;8.26;100.00;98312.91;4952379;29;20609;-83
2023/04/27 06:00:49;;;;;;;7.80;5.20;;;;;;;8.31;100.00;98313.47;4951582;29;20224;-83
2023/04/27 06:03:16;;;;;;;7.70;5.77;;;;;;;8.39;100.00;98312.09;4952164;29;20214;-84
2023/04/27 06:05:43;;;;;;;7.27;6.00;;;;;;;8.52;100.00;98312.25;4952355;28;20270;-80
2023/04/27 06:08:09;;;;;;;6.20;5.47;;;;;;;8.55;100.00;98315.56;4952254;29;20214;-80
2023/04/27 06:10:36;;;;;;;7.30;5.73;;;;;;;8.67;100.00;98321.91;4951516;28;20247;-83
2023/04/27 06:13:02;;;;;;;7.13;6.07;;;;;;;8.79;100.00;98321.16;4951800;29;20215;-79
2023/04/27 06:15:30;;;;;;;11.97;5.93;;;;;;;8.90;100.00;98313.47;4952251;29;20585;-81
2023/04/27 06:17:57;;;;;;;6.30;5.53;;;;;;;9.06;100.00;98322.19;4952132;28;20223;-82
2023/04/27 06:20:23;;;;;;;8.03;5.37;;;;;;;9.15;100.00;98319.84;4951161;29;20604;-81
2023/04/27 06:22:50;;;;;;;9.53;5.67;;;;;;;9.24;100.00;98313.16;4951849;29;20214;-82
2023/04/27 06:25:16;;;;;;;7.23;6.13;;;;;;;9.38;100.00;98321.06;4952215;29;20254;-82
2023/04/27 06:27:43;;;;;;;7.33;5.70;;;;;;;9.50;100.00;98320.31;4952008;29;20285;-83
2023/04/27 06:30:10;;;;;;;9.80;5.90;;;;;;;9.65;100.00;98325.47;4951065;29;20239;-82
2023/04/27 06:32:38;;;;;;;7.23;5.30;;;;;;;9.78;100.00;98323.75;4953222;29;20221;-82
2023/04/27 06:35:05;;;;;;;7.10;5.70;;;;;;;9.87;99.85;98319.69;4962473;29;20302;-81
2023/04/27 06:37:32;;;;;;;8.87;5.93;;;;;;;10.00;98.61;98317.97;4959511;29;20234;-79
2023/04/27 06:39:58;;;;;;;9.47;5.60;;;;;;;10.12;97.52;98311.94;4959064;28;20258;-80
2023/04/27 06:42:26;;;;;;;7.27;5.33;;;;;;;10.27;96.74;98313.59;4954544;29;20237;-79
2023/04/27 06:44:54;;;;;;;7.60;5.17;;;;;;;10.36;95.38;98313.00;4951725;29;20214;-79
2023/04/27 06:47:21;;;;;;;9.30;5.47;;;;;;;10.46;94.02;98304.34;4951639;29;20218;-81
2023/04/27 06:49:49;;;;;;;7.07;5.60;;;;;;;10.58;93.12;98316.75;4951177;29;20212;-78
2023/04/27 06:52:15;;;;;;;9.73;5.30;;;;;;;10.67;92.01;98307.38;4951861;29;20550;-78
2023/04/27 06:54:42;;;;;;;6.97;5.17;;;;;;;10.80;90.93;98318.81;4948017;29;20216;-78
2023/04/27 06:57:08;;;;;;;7.27;5.30;;;;;;;10.86;89.08;98307.81;4950159;29;20214;-80
2023/04/27 06:59:35;;;;;;;8.40;5.30;;;;;;;10.98;88.93;98312.28;4949973;29;20211;-81
2023/04/27 07:02:01;;;;;;;6.70;4.90;;;;;;;11.10;88.23;98311.44;4950510;29;20221;-81
2023/04/27 07:04:29;;;;;;;6.33;5.23;;;;;;;11.12;86.91;98309.56;4951507;28;20213;-80
2023/04/27 07:06:57;;;;;;;8.80;5.37;;;;;;;11.25;86.05;98305.97;4951904;29;20246;-81
2023/04/27 07:09:23;;;;;;;5.63;5.13;;;;;;;11.32;85.36;98306.38;4951021;28;20211;-88
2023/04/27 07:11:50;;;;;;;6.32;5.53;;;;;;;11.47;84.64;98315.91;4951118;29;20372;-79
2023/04/27 07:14:16;;;;;;;6.50;5.43;;;;;;;11.56;84.26;98313.44;4951408;29;20218;-80
2023/04/27 07:16:43;;;;;;;7.07;5.70;;;;;;;11.68;82.99;98306.50;4951286;29;20208;-77
2023/04/27 07:19:10;;;;;;;7.27;5.23;;;;;;;11.77;81.66;98297.88;4950442;28;20599;-80
2023/04/27 07:21:36;;;;;;;8.80;5.93;;;;;;;11.91;79.75;98295.94;4947659;29;20782;-80
2023/04/27 07:24:04;;;;;;;8.47;5.97;;;;;;;11.99;79.58;98292.75;4944250;29;20207;-79
2023/04/27 07:26:31;;;;;;;7.47;5.87;;;;;;;12.10;80.18;98298.13;4931223;29;20242;-80
2023/04/27 07:28:58;;;;;;;6.77;5.40;;;;;;;12.26;79.84;98290.72;4940203;29;20273;-80
2023/04/27 07:31:24;;;;;;;6.97;5.47;;;;;;;12.43;79.19;98293.84;4948659;29;20614;-80
2023/04/27 07:33:51;;;;;;;6.07;5.27;;;;;;;12.52;78.69;98293.16;4956621;28;20217;-80
2023/04/27 07:36:18;;;;;;;7.07;5.07;;;;;;;12.58;77.44;98291.84;4969042;28;20312;-80
2023/04/27 07:38:45;;;;;;;6.50;5.77;;;;;;;12.66;74.66;98269.09;4969472;28;20237;-80
2023/04/27 07:41:13;;;;;;;7.07;5.70;;;;;;;12.73;74.58;98274.78;4968278;28;20239;-80
2023/04/27 07:43:41;;;;;;;6.57;5.77;;;;;;;12.88;74.82;98278.94;4968815;28;20222;-80
2023/04/27 07:46:07;;;;;;;7.37;6.03;;;;;;;12.98;72.43;98272.00;4968666;28;20703;-80
2023/04/27 07:48:34;;;;;;;7.37;5.43;;;;;;;13.08;70.93;98271.16;4969207;28;20211;-80
2023/04/27 07:51:00;;;;;;;6.30;5.00;;;;;;;13.30;70.45;98271.22;4967418;28;20250;-80
2023/04/27 07:53:27;;;;;;;8.23;5.90;;;;;;;13.49;69.94;98263.50;4969438;28;20569;-79
2023/04/27 07:55:53;;;;;;;8.47;5.73;;;;;;;13.61;68.23;98256.34;4969471;28;20218;-79
2023/04/27 07:58:21;;;;;;;6.57;5.17;;;;;;;13.67;66.94;98254.06;4968222;28;20209;-79
2023/04/27 08:00:48;;;;;;;6.00;5.40;;;;;;;13.81;66.66;98263.59;4969063;28;20234;-79
2023/04/27 08:03:14;;;;;;;6.47;4.83;;;;;;;13.83;67.15;98259.00;4969618;28;20681;-82
2023/04/27 08:05:41;;;;;;;8.57;5.90;;;;;;;13.77;65.35;98249.72;4970178;28;20209;-77
2023/04/27 08:08:07;;;;;;;6.47;4.90;;;;;;;13.63;64.42;98243.81;4969702;28;20231;-76
2023/04/27 08:10:34;;;;;;;7.37;5.53;;;;;;;13.63;65.29;98254.44;4969072;28;20612;-80
2023/04/27 08:13:00;;;;;;;6.60;5.90;;;;;;;13.63;67.67;98262.41;4969717;28;20679;-80
2023/04/27 08:15:28;;;;;;;6.60;5.03;;;;;;;13.57;67.28;98262.91;4969714;28;20213;-80
2023/04/27 08:17:55;;;;;;;7.40;5.73;;;;;;;13.52;66.74;98257.94;4969569;28;20220;-80
2023/04/27 08:20:21;;;;;;;8.10;5.40;;;;;;;13.59;67.63;98260.94;4968788;28;20725;-80
2023/04/27 08:22:50;;;;;;;9.33;5.83;;;;;;;13.71;66.01;98249.34;4969526;28;20216;-80
2023/04/27 08:25:17;;;;;;;8.23;5.50;;;;;;;13.78;64.97;98243.44;4969390;28;20225;-80
2023/04/27 08:27:44;;;;;;;8.40;5.67;;;;;;;13.93;65.27;98249.34;4969879;28;20216;-80
2023/04/27 08:30:11;;;;;;;6.47;5.03;;;;;;;13.80;63.10;98230.00;4969413;28;20602;-80
2023/04/27 08:32:39;;;;;;;5.80;4.63;;;;;;;13.62;57.58;98191.69;4969990;28;20233;-79
2023/04/27 08:35:06;;;;;;;6.97;4.90;;;;;;;13.64;60.32;98213.63;4970019;28;20213;-75
2023/04/27 08:37:33;;;;;;;9.23;4.93;;;;;;;13.74;61.50;98219.91;4969457;28;20212;-82
2023/04/27 08:42:36;;;;;;;7.67;4.83;;;;;;;14.08;61.17;98217.03;4967872;28;20223;-80
2023/04/27 08:45:03;;;;;;;5.00;4.20;;;;;;;14.31;61.35;98212.53;4969255;28;20209;-77
2023/04/27 08:47:30;;;;;;;5.20;3.60;;;;;;;14.37;60.24;98217.31;4969220;28;20238;-79
2023/04/27 08:49:58;;;;;;;5.33;4.40;;;;;;;14.53;60.49;98212.41;4968601;28;20240;-77
2023/04/27 08:52:25;;;;;;;5.13;3.63;;;;;;;14.54;55.64;98171.56;4950240;29;20321;-78
2023/04/27 08:54:53;;;;;;;5.77;3.67;;;;;;;14.54;54.20;98152.94;4949317;29;20213;-78
2023/04/27 08:57:20;;;;;;;5.27;3.77;;;;;;;14.48;54.69;98166.75;4949840;29;20208;-76
2023/04/27 08:59:57;;;;;;;5.83;3.63;;;;;;;14.53;52.92;98154.75;4948920;29;20218;-76
2023/04/27 09:02:26;;;;;;;6.73;3.90;;;;;;;14.44;52.24;98144.91;4949541;29;20727;-76
2023/04/27 09:04:52;;;;;;;4.93;3.80;;;;;;;14.35;53.33;98156.28;4949641;29;20245;-79
2023/04/27 09:07:20;;;;;;;5.93;3.90;;;;;;;14.37;53.55;98164.16;4949432;28;20228;-77
2023/04/27 09:09:47;;;;;;;6.87;4.53;;;;;;;14.67;56.81;98193.47;4948453;28;20219;-76
2023/04/27 09:12:16;;;;;;;5.97;4.40;;;;;;;14.87;56.86;98195.28;4945912;28;20241;-76
2023/04/27 09:14:43;;;;;;;4.43;3.60;;;;;;;14.97;55.12;98185.56;4948488;29;20214;-76
2023/04/27 09:17:10;;;;;;;3.60;2.77;;;;;;;14.96;51.21;98143.94;4948291;29;20219;-76
2023/04/27 09:19:36;;;;;;;2.97;2.70;;;;;;;14.95;51.92;98158.19;4945127;29;20452;-76
2023/04/27 09:22:04;;;;;;;4.13;3.53;;;;;;;15.06;52.48;98174.09;4948683;29;20244;-76
2023/04/27 09:24:32;;;;;;;3.80;3.00;;;;;;;15.08;49.79;98140.19;4948718;29;20219;-76
2023/04/27 09:26:59;;;;;;;3.60;3.30;;;;;;;15.15;50.13;98141.38;4947320;28;20243;-76
2023/04/27 09:29:33;;;;;;;3.90;2.63;;;;;;;15.23;52.09;98171.69;5003709;28;20214;-77
2023/04/27 09:31:59;;;;;;;5.03;3.87;;;;;;;15.52;54.83;98201.94;5053235;28;20713;-76
2023/04/27 09:34:26;;;;;;;5.07;3.53;;;;;;;15.64;54.33;98202.69;5053484;28;20208;-76
2023/04/27 09:36:53;;;;;;;5.97;3.90;;;;;;;15.75;53.41;98191.91;5053820;28;20715;-75
2023/04/27 09:39:19;;;;;;;5.03;3.50;;;;;;;15.82;51.79;98167.25;5053057;28;20215;-76
2023/04/27 09:41:49;;;;;;;7.33;3.97;;;;;;;15.77;51.12;98161.47;5053483;28;20228;-76
2023/04/27 09:44:16;;;;;;;6.50;4.00;;;;;;;15.65;49.42;98141.25;5053480;28;20215;-76
2023/04/27 09:46:45;;;;;;;4.73;3.90;;;;;;;15.55;48.47;98134.22;5053733;28;20218;-76
2023/04/27 09:49:12;;;;;;;4.93;4.20;;;;;;;15.50;47.88;98125.81;5052758;28;20266;-76
2023/04/27 09:51:39;;;;;;;5.60;4.40;;;;;;;15.43;49.72;98146.81;5053357;28;20330;-77
2023/04/27 09:54:08;;;;;;;8.37;4.23;;;;;;;15.23;49.11;98137.06;5053671;28;20208;-78
2023/04/27 09:56:50;;;;;;;5.43;3.93;;;;;;;15.13;49.24;98132.66;5053480;28;20208;-78
2023/04/27 09:59:32;;;;;;;6.77;4.13;;;;;;;15.18;50.46;98149.06;5049541;28;20219;-78
2023/04/27 10:02:02;;;;;;;7.28;4.53;;;;;;;15.34;50.19;98136.97;5051343;28;20941;-78
2023/04/27 10:04:53;;;;;;;6.97;4.63;;;;;;;15.52;52.20;98163.81;4949217;28;20719;-79
2023/04/27 10:07:20;;;;;;;6.47;4.20;;;;;;;15.61;50.77;98149.66;4942294;29;20246;-78
2023/04/27 10:09:50;;;;;;;5.77;3.90;;;;;;;15.71;51.36;98161.19;4949726;29;20218;-79
2023/04/27 10:12:18;;;;;;;6.13;3.83;;;;;;;15.75;47.47;98119.97;4951808;29;20643;-82
2023/04/27 10:14:54;;;;;;;5.60;4.27;;;;;;;15.69;46.75;98104.53;4952101;29;20214;-82
2023/04/27 10:17:25;;;;;;;4.00;3.60;;;;;;;15.72;49.13;98136.25;4952079;29;20215;-78
2023/04/27 10:19:57;;;;;;;7.87;4.50;;;;;;;15.77;49.86;98144.66;4951319;29;20223;-81
2023/04/27 10:22:23;;;;;;;7.27;4.60;;;;;;;15.93;54.48;98195.59;4952022;29;20215;-80
2023/04/27 10:24:51;;;;;;;5.40;4.67;;;;;;;16.11;55.57;98216.13;4951563;29;20233;-80
2023/04/27 10:27:21;;;;;;;5.97;4.27;;;;;;;16.20;48.23;98122.81;4951988;29;20233;-82
2023/04/27 10:29:49;;;;;;;5.37;4.30;;;;;;;16.14;48.21;98131.38;4951078;29;20678;-79
2023/04/27 10:32:22;;;;;;;5.83;3.93;;;;;;;16.14;48.90;98142.03;4951588;29;20247;-79
2023/04/27 10:34:49;;;;;;;8.67;4.80;;;;;;;16.20;48.28;98133.47;4951636;28;20204;-82
2023/04/27 10:37:19;;;;;;;6.27;4.53;;;;;;;16.09;45.65;98096.28;4951822;29;20211;-83
2023/04/27 10:39:46;;;;;;;5.77;4.40;;;;;;;16.04;46.57;98111.03;4950969;29;20242;-79
2023/04/27 10:42:12;;;;;;;7.73;4.27;;;;;;;16.20;47.59;98117.47;4951306;29;20472;-78
2023/04/27 10:44:39;;;;;;;7.47;5.17;;;;;;;16.27;48.74;98139.91;4951431;29;20221;-79
2023/04/27 10:47:14;;;;;;;5.47;4.00;;;;;;;16.35;47.77;98129.38;4951127;29;20214;-79
2023/04/27 10:49:43;;;;;;;4.77;4.20;;;;;;;16.52;50.96;98168.72;4950486;29;20211;-79
2023/04/27 10:52:09;;;;;;;5.20;4.70;;;;;;;16.83;52.98;98180.88;4951257;29;20327;-78
2023/04/27 10:54:36;;;;;;;5.70;4.20;;;;;;;17.08;51.44;98158.06;4951275;29;20305;-79
2023/04/27 10:57:05;;;;;;;7.63;5.07;;;;;;;17.24;51.77;98169.81;4951127;29;20215;-77
2023/04/27 10:59:32;;;;;;;12.27;5.00;;;;;;;17.34;53.95;98197.34;4950185;29;20335;-76
2023/04/27 11:01:59;;;;;;;7.53;5.10;;;;;;;17.38;51.06;98161.34;4950920;29;20224;-77
2023/04/27 11:04:37;;;;;;;6.67;5.07;;;;;;;17.37;49.51;98143.63;4951121;29;20233;-78
2023/04/27 11:07:04;;;;;;;7.07;5.07;;;;;;;17.37;52.48;98181.03;4950587;29;20219;-78
2023/04/27 11:09:31;;;;;;;6.57;4.17;;;;;;;17.06;44.88;98086.13;4950313;29;20216;-78
2023/04/27 11:11:58;;;;;;;6.40;4.00;;;;;;;16.87;44.97;98091.53;4950520;29;20242;-78
2023/04/27 11:14:24;;;;;;;5.27;4.10;;;;;;;16.87;46.28;98096.88;4950811;29;20238;-76
2023/04/27 11:16:51;;;;;;;5.43;3.80;;;;;;;16.85;44.45;98082.84;4950903;29;20302;-78
2023/04/27 11:19:17;;;;;;;5.00;3.73;;;;;;;16.72;45.04;98078.81;4950383;29;20306;-80
2023/04/27 11:21:44;;;;;;;7.07;5.30;;;;;;;16.80;50.17;98142.97;4950815;29;20238;-79
2023/04/27 11:24:12;;;;;;;6.70;5.47;;;;;;;16.92;51.25;98153.34;4951190;29;20269;-79
2023/04/27 11:26:38;;;;;;;6.37;5.63;;;;;;;17.08;50.55;98148.22;4950816;29;20208;-80
2023/04/27 11:29:08;;;;;;;6.97;5.43;;;;;;;17.18;50.98;98154.38;4950948;29;20215;-80
2023/04/27 11:31:40;;;;;;;6.37;4.90;;;;;;;17.21;49.24;98126.53;4950830;29;20318;-81
2023/04/27 11:34:07;;;;;;;8.00;5.63;;;;;;;17.40;47.98;98116.66;4951018;29;20242;-81
2023/04/27 11:36:33;;;;;;;7.07;5.50;;;;;;;17.21;45.50;98084.66;4949869;29;20207;-81